Time;durP1;ratioP1;P1;durP2;ratioP2;P2;SDS_P1;SDS_P2;PMS_P1;PMS_P2;Temp;Humidity;BMP_temperature;BMP_pressure;BME280_temperature;BME280_humidity;BME280_pressure;Samples;Min_cycle;Max_cycle;Signal;HPM_P1;HPM_P2
2023/07/08 00:02:13;;;;;;;14.30;9.67;;;19.50;56.00;;;;;;5015211;28;20445;-70
2023/07/08 00:04:40;;;;;;;13.83;7.13;;;19.50;56.50;;;;;;5015624;28;20793;-70
2023/07/08 00:07:12;;;;;;;9.77;7.43;;;19.50;56.60;;;;;;5015439;28;20857;-70
2023/07/08 00:09:41;;;;;;;12.77;7.50;;;19.50;56.80;;;;;;5024632;28;20443;-71
2023/07/08 00:12:11;;;;;;;13.97;7.23;;;19.50;56.80;;;;;;5034838;28;20508;-71
2023/07/08 00:14:38;;;;;;;10.57;6.93;;;19.50;56.80;;;;;;5035235;28;20442;-70
2023/07/08 00:17:12;;;;;;;11.67;7.47;;;19.60;57.10;;;;;;5031349;28;20799;-70
2023/07/08 00:19:38;;;;;;;16.90;7.00;;;19.60;56.90;;;;;;5023816;28;20925;-70
2023/07/08 00:22:12;;;;;;;11.27;7.17;;;19.50;56.90;;;;;;5034900;28;20766;-70
2023/07/08 00:24:40;;;;;;;11.13;7.70;;;19.50;57.20;;;;;;5034964;28;20438;-70
2023/07/08 00:27:12;;;;;;;14.87;7.60;;;19.40;57.50;;;;;;5034599;28;20432;-70
2023/07/08 00:29:39;;;;;;;10.03;6.50;;;19.40;57.60;;;;;;5034562;28;20908;-70
2023/07/08 00:32:12;;;;;;;12.17;6.93;;;19.40;57.80;;;;;;5034829;28;20438;-70
2023/07/08 00:34:39;;;;;;;9.40;6.57;;;19.40;58.20;;;;;;5034902;28;20455;-70
2023/07/08 00:37:06;;;;;;;9.60;6.90;;;19.30;58.50;;;;;;5034577;28;20499;-70
2023/07/08 00:39:33;;;;;;;14.83;8.17;;;19.30;58.50;;;;;;5033748;28;20496;-75
2023/07/08 00:42:02;;;;;;;10.30;7.00;;;19.30;58.50;;;;;;5014798;28;20446;-70
2023/07/08 00:44:29;;;;;;;9.43;6.70;;;19.30;58.80;;;;;;5014938;28;20469;-70
2023/07/08 00:47:04;;;;;;;11.87;6.70;;;19.20;59.00;;;;;;5014435;28;20510;-70
2023/07/08 00:49:38;;;;;;;11.00;7.10;;;19.20;58.90;;;;;;5014546;28;20457;-70
2023/07/08 00:52:19;;;;;;;11.10;7.57;;;19.20;59.00;;;;;;5014872;28;20830;-70
2023/07/08 00:54:46;;;;;;;12.57;7.27;;;19.30;59.40;;;;;;5014147;28;20444;-70
2023/07/08 00:57:15;;;;;;;11.03;8.10;;;19.20;59.50;;;;;;5014274;28;20503;-70
2023/07/08 00:59:46;;;;;;;12.03;7.57;;;19.30;59.50;;;;;;5014806;28;20470;-70
2023/07/08 01:02:16;;;;;;;11.57;7.33;;;19.10;59.90;;;;;;5023220;28;20471;-71
2023/07/08 01:04:51;;;;;;;10.50;6.70;;;19.10;60.30;;;;;;5015132;28;20489;-70
2023/07/08 01:07:21;;;;;;;13.10;8.77;;;19.10;60.70;;;;;;5029435;28;20851;-70
2023/07/08 01:09:52;;;;;;;10.00;6.90;;;19.10;60.80;;;;;;5033676;28;20436;-70
2023/07/08 01:12:25;;;;;;;12.57;8.80;;;19.10;61.10;;;;;;5034273;28;20433;-70
2023/07/08 01:14:54;;;;;;;11.70;8.10;;;19.00;61.20;;;;;;5022005;28;20434;-70
2023/07/08 01:17:22;;;;;;;13.03;7.37;;;18.90;61.50;;;;;;5014442;28;20446;-70
2023/07/08 01:19:51;;;;;;;11.50;8.20;;;18.90;61.90;;;;;;5014237;28;20482;-70
2023/07/08 01:22:19;;;;;;;13.03;7.53;;;18.80;62.20;;;;;;5013865;28;20468;-70
2023/07/08 01:24:47;;;;;;;12.03;7.73;;;18.80;62.60;;;;;;5024631;28;20521;-70
2023/07/08 01:27:17;;;;;;;11.50;8.00;;;18.70;62.80;;;;;;5033584;28;20992;-70
2023/07/08 01:29:45;;;;;;;10.83;7.70;;;18.60;63.30;;;;;;5033903;28;20460;-70
2023/07/08 01:32:17;;;;;;;14.13;7.60;;;18.60;63.90;;;;;;5033817;28;20441;-70
2023/07/08 01:34:59;;;;;;;11.87;7.80;;;18.60;64.10;;;;;;5023220;28;20441;-70
2023/07/08 01:37:30;;;;;;;10.30;7.50;;;18.50;64.10;;;;;;5014045;28;20461;-70
2023/07/08 01:39:57;;;;;;;14.80;7.83;;;18.50;64.60;;;;;;5013943;28;20431;-70
2023/07/08 01:42:24;;;;;;;10.40;6.33;;;18.50;64.70;;;;;;5014026;28;20473;-70
2023/07/08 01:44:52;;;;;;;13.33;7.53;;;18.40;65.00;;;;;;5024467;28;20523;-70
2023/07/08 01:47:23;;;;;;;12.47;9.03;;;18.40;65.30;;;;;;5032860;28;20485;-70
2023/07/08 01:49:50;;;;;;;16.30;9.37;;;18.30;65.90;;;;;;5031836;28;20468;-71
2023/07/08 01:52:18;;;;;;;12.40;8.10;;;18.30;65.80;;;;;;5033230;28;20471;-70
2023/07/08 01:54:55;;;;;;;11.50;8.17;;;18.30;65.60;;;;;;5022904;28;20516;-70
2023/07/08 01:57:22;;;;;;;11.23;7.60;;;18.30;65.80;;;;;;5013451;28;20442;-70
2023/07/08 01:59:48;;;;;;;12.60;7.97;;;18.20;66.30;;;;;;5013871;28;20503;-70
2023/07/08 02:02:15;;;;;;;13.30;8.77;;;18.20;66.80;;;;;;5013455;28;20896;-70
2023/07/08 02:04:42;;;;;;;12.40;7.47;;;18.10;66.90;;;;;;5023179;28;20527;-70
2023/07/08 02:07:09;;;;;;;10.80;7.40;;;18.10;67.30;;;;;;5033015;28;20562;-70
2023/07/08 02:09:36;;;;;;;11.50;7.77;;;18.10;67.40;;;;;;5033068;28;20991;-70
2023/07/08 02:12:05;;;;;;;9.83;6.20;;;18.10;67.50;;;;;;5033357;28;20476;-70
2023/07/08 02:14:32;;;;;;;12.43;7.07;;;18.00;67.40;;;;;;5028844;28;20476;-70
2023/07/08 02:16:59;;;;;;;11.80;7.50;;;18.00;67.70;;;;;;5017260;28;20983;-70
2023/07/08 02:19:27;;;;;;;9.30;7.37;;;17.90;68.60;;;;;;5017606;28;20476;-70
2023/07/08 02:21:54;;;;;;;13.43;7.57;;;17.90;68.70;;;;;;5017643;28;20448;-70
2023/07/08 02:24:22;;;;;;;10.53;7.60;;;17.90;69.00;;;;;;5023174;28;20961;-70
2023/07/08 02:26:50;;;;;;;13.80;8.20;;;17.90;69.30;;;;;;5036789;28;20478;-70
2023/07/08 02:29:18;;;;;;;13.30;9.47;;;17.90;69.60;;;;;;5036896;28;20475;-70
2023/07/08 02:31:45;;;;;;;13.10;8.23;;;17.80;69.70;;;;;;5020215;28;20477;-70
2023/07/08 02:34:12;;;;;;;10.47;8.07;;;17.80;69.60;;;;;;5017286;28;20438;-70
2023/07/08 02:36:39;;;;;;;11.40;7.97;;;17.80;69.60;;;;;;5017308;28;20457;-72
2023/07/08 02:39:06;;;;;;;11.80;7.50;;;17.80;70.00;;;;;;5017145;28;20531;-70
2023/07/08 02:41:33;;;;;;;11.83;7.70;;;17.70;70.60;;;;;;5030783;28;20452;-70
2023/07/08 02:44:00;;;;;;;12.37;7.37;;;17.70;70.90;;;;;;5032007;28;20986;-71
2023/07/08 02:46:28;;;;;;;11.97;6.87;;;17.70;70.90;;;;;;5017071;28;20472;-70
2023/07/08 02:48:55;;;;;;;11.43;6.93;;;17.70;71.00;;;;;;5026580;28;20487;-70
2023/07/08 02:51:23;;;;;;;10.43;7.17;;;17.70;70.90;;;;;;5024127;28;20437;-71
2023/07/08 02:53:51;;;;;;;11.50;7.30;;;17.70;70.50;;;;;;5016839;28;20503;-71
2023/07/08 02:56:18;;;;;;;10.60;6.90;;;17.60;71.10;;;;;;5016554;28;20441;-70
2023/07/08 02:58:45;;;;;;;10.27;8.00;;;17.60;71.50;;;;;;5016842;28;20473;-70
2023/07/08 03:01:11;;;;;;;10.80;8.03;;;17.60;72.10;;;;;;5027026;28;20464;-71
2023/07/08 03:03:40;;;;;;;10.30;7.33;;;17.60;72.30;;;;;;5021904;28;20472;-71
2023/07/08 03:06:07;;;;;;;13.20;6.57;;;17.60;72.60;;;;;;5016298;28;20971;-70
2023/07/08 03:08:34;;;;;;;11.10;7.23;;;17.60;72.80;;;;;;5016591;28;20474;-70
2023/07/08 03:11:03;;;;;;;11.07;7.60;;;17.60;72.90;;;;;;5026759;28;20444;-70
2023/07/08 03:13:30;;;;;;;14.23;7.43;;;17.60;73.10;;;;;;5036296;28;20433;-70
2023/07/08 03:15:59;;;;;;;9.57;6.07;;;17.70;73.20;;;;;;5036302;28;20499;-70
2023/07/08 03:18:27;;;;;;;11.90;7.63;;;17.70;73.00;;;;;;5036264;28;20515;-70
2023/07/08 03:20:57;;;;;;;9.60;6.37;;;17.70;72.90;;;;;;5025019;28;20441;-70
2023/07/08 03:23:25;;;;;;;13.60;7.60;;;17.70;72.80;;;;;;5016055;28;20437;-70
2023/07/08 03:25:52;;;;;;;11.33;6.67;;;17.70;73.20;;;;;;5015608;28;20504;-70
2023/07/08 03:28:19;;;;;;;10.80;6.60;;;17.60;73.60;;;;;;5015976;28;20472;-70
2023/07/08 03:30:51;;;;;;;10.10;7.17;;;17.60;74.00;;;;;;5020539;28;20477;-70
2023/07/08 03:33:18;;;;;;;12.70;7.47;;;17.60;74.10;;;;;;5029193;28;20815;-70
2023/07/08 03:35:46;;;;;;;11.60;7.20;;;17.60;74.10;;;;;;5035611;28;20475;-70
2023/07/08 03:38:14;;;;;;;10.80;7.40;;;17.60;74.20;;;;;;5035480;28;20440;-70
2023/07/08 03:40:41;;;;;;;9.70;6.80;;;17.70;74.50;;;;;;5026877;28;20438;-70
2023/07/08 03:43:08;;;;;;;11.50;7.43;;;17.60;74.40;;;;;;5016208;28;20440;-70
2023/07/08 03:45:35;;;;;;;12.07;7.10;;;17.60;75.10;;;;;;5016030;28;20473;-70
2023/07/08 03:48:02;;;;;;;14.40;7.63;;;17.70;74.30;;;;;;5015924;28;20483;-71
2023/07/08 03:50:29;;;;;;;11.23;7.37;;;17.60;74.60;;;;;;5022022;28;20471;-70
2023/07/08 03:52:57;;;;;;;12.07;8.50;;;17.60;75.00;;;;;;5026437;28;20471;-70
2023/07/08 03:55:28;;;;;;;11.93;8.07;;;17.50;75.20;;;;;;5015828;28;20446;-70
2023/07/08 03:57:55;;;;;;;12.23;6.90;;;17.60;75.40;;;;;;5015425;28;20476;-70
2023/07/08 04:00:22;;;;;;;10.40;6.80;;;17.60;75.60;;;;;;5020580;28;20460;-70
2023/07/08 04:02:49;;;;;;;8.67;6.83;;;17.60;75.40;;;;;;5033049;28;20517;-70
2023/07/08 04:05:17;;;;;;;11.60;7.30;;;17.70;75.50;;;;;;5035468;28;20786;-70
2023/07/08 04:07:44;;;;;;;10.97;7.20;;;17.70;75.40;;;;;;5034900;28;20476;-70
2023/07/08 04:10:12;;;;;;;10.40;7.00;;;17.70;75.50;;;;;;5030976;28;20963;-70
2023/07/08 04:12:41;;;;;;;10.47;7.03;;;17.80;75.20;;;;;;5015300;28;20445;-70
2023/07/08 04:15:10;;;;;;;10.57;7.50;;;17.80;76.00;;;;;;5015410;28;20618;-71
2023/07/08 04:17:42;;;;;;;11.60;7.00;;;17.80;76.50;;;;;;5015316;28;20453;-70
2023/07/08 04:20:10;;;;;;;10.50;6.77;;;17.80;76.50;;;;;;5017750;28;20464;-70
2023/07/08 04:22:38;;;;;;;11.63;7.30;;;17.80;76.40;;;;;;5034363;28;20441;-70
2023/07/08 04:25:05;;;;;;;8.93;6.50;;;17.80;76.50;;;;;;5035000;28;20467;-70
2023/07/08 04:27:33;;;;;;;8.87;5.90;;;17.90;76.70;;;;;;5034884;28;20508;-70
2023/07/08 04:30:04;;;;;;;9.40;6.70;;;17.90;76.30;;;;;;5032733;28;20448;-70
2023/07/08 04:32:31;;;;;;;13.23;6.70;;;17.90;76.30;;;;;;5014816;28;20974;-70
2023/07/08 04:34:58;;;;;;;9.60;6.17;;;17.90;76.20;;;;;;5014991;28;20939;-70
2023/07/08 04:37:25;;;;;;;11.83;7.13;;;17.90;76.20;;;;;;5025234;28;20438;-70
2023/07/08 04:39:52;;;;;;;12.73;7.63;;;17.90;76.50;;;;;;5034623;28;20469;-72
2023/07/08 04:42:19;;;;;;;13.13;8.50;;;17.90;76.20;;;;;;5034745;28;20476;-70
2023/07/08 04:44:46;;;;;;;13.40;6.97;;;17.90;76.20;;;;;;5034336;28;20491;-69
2023/07/08 04:47:14;;;;;;;10.90;7.10;;;18.00;76.50;;;;;;5031084;28;20533;-69
2023/07/08 04:49:43;;;;;;;8.93;6.43;;;18.00;76.50;;;;;;5034124;28;20464;-69
2023/07/08 04:52:10;;;;;;;11.20;6.60;;;18.00;76.50;;;;;;5034132;28;20539;-70
2023/07/08 04:54:37;;;;;;;8.93;5.97;;;18.00;76.60;;;;;;5034077;28;20923;-69
2023/07/08 04:57:05;;;;;;;16.47;7.80;;;18.00;76.40;;;;;;5024394;28;20448;-69
2023/07/08 04:59:34;;;;;;;11.70;6.87;;;18.00;76.70;;;;;;5014587;28;20468;-69
2023/07/08 05:02:01;;;;;;;10.90;7.20;;;18.00;76.70;;;;;;5014402;28;20476;-69
2023/07/08 05:04:29;;;;;;;14.93;7.80;;;18.00;76.70;;;;;;5014528;28;20481;-69
2023/07/08 05:06:56;;;;;;;14.40;8.47;;;18.00;76.40;;;;;;5021686;28;20531;-69
2023/07/08 05:09:25;;;;;;;14.57;9.20;;;18.00;76.60;;;;;;5033638;28;20480;-70
2023/07/08 05:11:53;;;;;;;15.37;7.10;;;18.00;76.70;;;;;;5033904;28;20428;-72
2023/07/08 05:14:20;;;;;;;14.23;8.77;;;18.10;77.00;;;;;;5020789;28;20937;-69
2023/07/08 05:16:47;;;;;;;12.27;6.60;;;18.10;77.20;;;;;;5019285;28;20472;-69
2023/07/08 05:19:14;;;;;;;10.07;6.73;;;18.10;77.50;;;;;;5033287;28;20503;-69
2023/07/08 05:21:45;;;;;;;13.30;7.43;;;18.20;77.70;;;;;;5033414;28;20498;-70
2023/07/08 05:24:12;;;;;;;11.40;7.47;;;18.30;77.90;;;;;;5022285;28;20429;-69
2023/07/08 05:26:38;;;;;;;12.40;6.93;;;18.30;77.80;;;;;;5013074;28;20502;-70
2023/07/08 05:29:06;;;;;;;13.57;8.27;;;18.40;77.30;;;;;;5013418;28;20481;-69
2023/07/08 05:31:34;;;;;;;11.30;6.97;;;18.50;77.20;;;;;;5013853;28;20448;-69
2023/07/08 05:34:01;;;;;;;10.20;6.73;;;18.60;76.70;;;;;;5022651;28;20468;-69
2023/07/08 05:36:28;;;;;;;12.60;6.97;;;18.60;76.90;;;;;;5033720;28;20481;-69
2023/07/08 05:38:56;;;;;;;10.20;6.53;;;18.60;77.00;;;;;;5033525;28;20468;-69
2023/07/08 05:41:23;;;;;;;12.60;8.20;;;18.70;77.30;;;;;;5030741;28;20448;-69
2023/07/08 05:43:50;;;;;;;8.20;5.90;;;18.80;77.90;;;;;;5033669;28;20504;-69
2023/07/08 05:46:17;;;;;;;10.80;6.70;;;18.80;78.30;;;;;;5033598;28;20496;-69
2023/07/08 05:48:44;;;;;;;10.80;7.10;;;18.90;78.40;;;;;;5033139;28;20522;-69
2023/07/08 05:51:11;;;;;;;11.40;6.37;;;19.00;77.70;;;;;;5031487;28;20465;-69
2023/07/08 05:53:37;;;;;;;14.30;7.10;;;19.10;77.50;;;;;;5033421;28;20466;-69
2023/07/08 05:56:06;;;;;;;10.37;7.10;;;19.20;76.90;;;;;;5033500;28;20479;-69
2023/07/08 05:58:33;;;;;;;16.47;7.30;;;19.40;77.10;;;;;;5015473;28;20531;-69
2023/07/08 06:01:00;;;;;;;7.77;5.83;;;19.50;77.90;;;;;;5022314;28;20481;-69
2023/07/08 06:03:27;;;;;;;10.53;5.57;;;19.70;78.60;;;;;;5033187;28;20473;-69
2023/07/08 06:05:54;;;;;;;12.07;5.70;;;19.80;78.90;;;;;;5033432;28;20765;-69
2023/07/08 06:08:22;;;;;;;8.00;5.77;;;20.00;79.20;;;;;;5032853;28;20503;-69
2023/07/08 06:10:50;;;;;;;10.53;6.53;;;20.10;79.10;;;;;;5032095;28;20445;-69
2023/07/08 06:13:18;;;;;;;12.40;7.10;;;20.20;77.90;;;;;;5021392;28;20447;-69
2023/07/08 06:15:45;;;;;;;8.90;6.30;;;20.40;77.50;;;;;;5013366;28;20984;-73
2023/07/08 06:18:12;;;;;;;10.20;6.73;;;20.50;77.10;;;;;;5013206;28;20482;-69
2023/07/08 06:20:39;;;;;;;10.47;6.90;;;20.60;77.40;;;;;;5019207;28;20438;-69
2023/07/08 06:23:06;;;;;;;9.40;6.07;;;20.70;76.40;;;;;;5032908;28;20492;-69
2023/07/08 06:25:33;;;;;;;16.40;7.00;;;20.80;76.40;;;;;;5033227;28;20539;-69
2023/07/08 06:28:00;;;;;;;18.73;6.60;;;20.90;76.80;;;;;;5033177;28;20521;-69
2023/07/08 06:30:29;;;;;;;11.40;6.43;;;21.00;76.70;;;;;;5028393;28;20438;-69
2023/07/08 06:32:56;;;;;;;13.27;7.23;;;21.10;75.30;;;;;;5013450;28;20443;-71
2023/07/08 06:35:23;;;;;;;10.43;6.23;;;21.30;75.40;;;;;;5013472;28;20494;-69
2023/07/08 06:37:50;;;;;;;11.43;6.03;;;21.40;75.20;;;;;;5013045;28;20962;-69
2023/07/08 06:40:19;;;;;;;12.07;6.80;;;21.50;74.50;;;;;;5015717;28;20436;-68
2023/07/08 06:42:46;;;;;;;10.10;5.70;;;21.60;73.00;;;;;;5032838;28;20438;-69
2023/07/08 06:45:13;;;;;;;16.87;5.80;;;21.70;71.50;;;;;;5033079;28;20539;-69
2023/07/08 06:47:41;;;;;;;11.10;5.83;;;21.90;70.30;;;;;;5025702;28;20552;-69
2023/07/08 06:50:09;;;;;;;10.30;5.73;;;22.00;69.50;;;;;;5032003;28;20799;-69
2023/07/08 06:52:36;;;;;;;6.50;5.03;;;22.10;68.10;;;;;;5032421;28;20510;-70
2023/07/08 06:55:05;;;;;;;10.80;5.53;;;22.20;66.90;;;;;;5023162;28;20439;-69
2023/07/08 06:57:32;;;;;;;9.13;5.60;;;22.30;66.90;;;;;;5016710;28;20635;-69
2023/07/08 06:59:59;;;;;;;11.23;6.00;;;22.40;66.40;;;;;;5032863;28;20533;-69
2023/07/08 07:02:26;;;;;;;8.30;5.73;;;22.50;66.20;;;;;;5035619;28;20489;-70
2023/07/08 07:04:55;;;;;;;11.00;6.10;;;22.60;66.60;;;;;;5035974;28;20783;-69
2023/07/08 07:07:22;;;;;;;8.80;6.13;;;22.70;67.10;;;;;;5032399;28;20485;-68
2023/07/08 07:09:49;;;;;;;7.80;4.97;;;22.80;67.40;;;;;;5030421;28;20501;-69
2023/07/08 07:12:15;;;;;;;10.53;5.40;;;22.90;66.40;;;;;;5035662;28;20837;-69
2023/07/08 07:14:42;;;;;;;13.60;5.53;;;23.00;64.30;;;;;;5035747;28;20448;-68
2023/07/08 07:17:09;;;;;;;9.23;5.30;;;23.00;63.20;;;;;;5035842;28;20533;-69
2023/07/08 07:19:36;;;;;;;5.83;4.43;;;23.10;64.30;;;;;;5035766;28;20435;-69
2023/07/08 07:22:05;;;;;;;10.00;5.87;;;23.20;64.90;;;;;;5035209;28;20473;-69
2023/07/08 07:24:32;;;;;;;8.07;5.20;;;23.30;65.70;;;;;;5033170;28;20464;-70
2023/07/08 07:26:59;;;;;;;8.60;5.90;;;23.40;65.80;;;;;;5012581;28;20939;-69
2023/07/08 07:29:26;;;;;;;9.00;5.53;;;23.50;65.70;;;;;;5015671;28;20437;-69
2023/07/08 07:31:54;;;;;;;9.53;5.83;;;23.60;65.80;;;;;;5021479;28;20498;-69
2023/07/08 07:34:21;;;;;;;11.40;6.77;;;23.70;65.70;;;;;;5034582;28;20451;-69
2023/07/08 07:36:48;;;;;;;10.73;5.47;;;23.80;64.50;;;;;;5026307;28;20455;-69
2023/07/08 07:39:16;;;;;;;10.30;5.77;;;24.00;63.60;;;;;;5034903;28;20467;-70
2023/07/08 07:41:43;;;;;;;12.73;5.73;;;24.10;62.70;;;;;;5034718;28;20486;-69
2023/07/08 07:44:10;;;;;;;8.17;5.67;;;24.20;62.20;;;;;;5034911;28;20448;-69
2023/07/08 07:46:37;;;;;;;10.13;6.03;;;24.20;61.80;;;;;;5034188;28;20476;-69
2023/07/08 07:49:04;;;;;;;12.10;6.20;;;24.30;60.50;;;;;;5033921;28;20982;-69
2023/07/08 07:51:31;;;;;;;13.27;6.90;;;24.40;61.10;;;;;;5029365;28;20435;-69
2023/07/08 07:53:58;;;;;;;9.37;5.90;;;24.50;61.80;;;;;;5029242;28;20452;-69
2023/07/08 07:56:26;;;;;;;11.00;6.47;;;24.70;62.40;;;;;;5024334;28;20475;-68
2023/07/08 07:58:53;;;;;;;7.70;5.37;;;24.80;61.20;;;;;;5024663;28;20935;-70
2023/07/08 08:01:21;;;;;;;8.30;5.40;;;25.00;61.00;;;;;;5016597;28;20537;-69
2023/07/08 08:03:50;;;;;;;9.80;4.83;;;25.10;59.30;;;;;;5031519;28;20516;-69
2023/07/08 08:06:17;;;;;;;9.80;5.20;;;25.20;59.30;;;;;;5033858;28;20495;-69
2023/07/08 08:08:45;;;;;;;8.27;5.10;;;25.30;58.40;;;;;;5033887;28;20485;-69
2023/07/08 08:11:11;;;;;;;9.67;5.40;;;25.40;57.20;;;;;;5019367;28;20453;-69
2023/07/08 08:13:40;;;;;;;6.67;4.70;;;25.50;56.70;;;;;;5018439;28;20774;-69
2023/07/08 08:16:07;;;;;;;8.53;4.80;;;25.60;56.60;;;;;;5026292;28;20480;-69
2023/07/08 08:18:34;;;;;;;9.37;4.80;;;25.60;56.00;;;;;;5020829;28;20439;-71
2023/07/08 08:21:01;;;;;;;8.27;4.60;;;25.80;56.50;;;;;;5030299;28;20481;-69
2023/07/08 08:23:28;;;;;;;6.93;3.90;;;25.90;57.20;;;;;;5014355;28;20490;-68
2023/07/08 08:25:54;;;;;;;7.20;4.93;;;26.10;56.50;;;;;;5021776;28;20480;-70
2023/07/08 08:28:21;;;;;;;7.90;4.77;;;26.30;56.60;;;;;;5028266;28;20504;-68
2023/07/08 08:30:50;;;;;;;15.23;5.77;;;26.40;56.00;;;;;;5031950;28;20834;-68
2023/07/08 08:33:19;;;;;;;11.30;5.70;;;26.60;54.80;;;;;;5014242;28;20467;-68
2023/07/08 08:35:46;;;;;;;11.10;5.50;;;26.80;54.80;;;;;;5030465;28;20482;-70
2023/07/08 08:38:13;;;;;;;7.63;4.20;;;26.90;54.90;;;;;;5033611;28;20480;-68
2023/07/08 08:40:41;;;;;;;9.40;4.37;;;27.10;54.50;;;;;;5033545;28;20493;-68
2023/07/08 08:43:14;;;;;;;7.10;5.40;;;27.30;54.80;;;;;;5028829;28;20450;-68
2023/07/08 08:45:49;;;;;;;8.83;5.37;;;27.40;53.40;;;;;;5019977;28;20443;-69
2023/07/08 08:48:20;;;;;;;10.00;5.60;;;27.50;52.30;;;;;;5025218;28;20885;-68
2023/07/08 08:50:52;;;;;;;8.80;4.40;;;27.60;52.60;;;;;;5033176;28;20470;-68
2023/07/08 08:53:21;;;;;;;9.17;5.30;;;27.70;52.70;;;;;;5033839;28;20430;-68
2023/07/08 08:55:55;;;;;;;8.77;5.53;;;27.80;51.60;;;;;;5019257;28;20481;-68
2023/07/08 08:58:32;;;;;;;6.80;5.03;;;27.80;51.70;;;;;;5017287;28;20454;-69
2023/07/08 09:01:01;;;;;;;8.50;4.80;;;27.90;51.70;;;;;;5033107;28;20928;-68
2023/07/08 09:03:38;;;;;;;7.10;4.90;;;28.00;51.10;;;;;;5033042;28;20430;-71
2023/07/08 09:06:12;;;;;;;8.17;5.13;;;28.10;51.50;;;;;;5033725;28;20473;-68
2023/07/08 09:08:40;;;;;;;10.23;6.00;;;28.20;52.10;;;;;;5031357;28;20998;-68
2023/07/08 09:11:18;;;;;;;8.83;5.80;;;28.30;51.60;;;;;;5032958;28;20524;-69
2023/07/08 09:13:45;;;;;;;8.33;5.00;;;28.40;51.00;;;;;;5033569;28;20513;-69
2023/07/08 09:16:20;;;;;;;7.43;4.53;;;28.50;51.30;;;;;;5019121;28;20509;-68
2023/07/08 09:18:59;;;;;;;8.30;5.80;;;28.60;49.40;;;;;;5017205;28;20833;-69
2023/07/08 09:21:31;;;;;;;10.63;5.07;;;28.60;50.70;;;;;;5033253;28;20434;-68
2023/07/08 09:24:05;;;;;;;8.40;4.83;;;28.70;50.50;;;;;;5031990;28;20792;-68
2023/07/08 09:26:34;;;;;;;8.60;4.67;;;28.80;49.30;;;;;;5033005;28;20920;-68
2023/07/08 09:29:01;;;;;;;6.30;3.80;;;28.90;48.30;;;;;;5032481;28;21027;-69
2023/07/08 09:31:31;;;;;;;12.50;5.73;;;29.00;48.60;;;;;;5018820;28;20593;-68
2023/07/08 09:34:09;;;;;;;8.10;4.80;;;29.10;47.90;;;;;;5016086;28;20439;-68
2023/07/08 09:36:41;;;;;;;8.80;5.70;;;29.10;47.30;;;;;;5032681;28;20448;-68
2023/07/08 09:39:12;;;;;;;8.83;5.67;;;29.10;47.10;;;;;;5032920;28;20520;-69
2023/07/08 09:41:40;;;;;;;8.30;5.43;;;29.20;48.00;;;;;;5019647;28;20435;-69
2023/07/08 09:44:28;;;;;;;8.10;5.40;;;29.20;47.40;;;;;;5013011;28;20427;-68
2023/07/08 09:46:55;;;;;;;7.90;5.03;;;29.30;47.40;;;;;;5034308;28;20498;-68
2023/07/08 09:49:28;;;;;;;5.77;4.07;;;29.30;46.30;;;;;;5013061;28;20523;-68
2023/07/08 09:51:55;;;;;;;9.70;4.13;;;29.30;46.10;;;;;;5012788;28;20459;-68
2023/07/08 09:54:24;;;;;;;9.63;4.30;;;29.30;45.70;;;;;;5012456;28;20921;-68
2023/07/08 09:56:58;;;;;;;7.80;4.90;;;29.30;45.90;;;;;;5012676;28;20529;-68
2023/07/08 09:59:31;;;;;;;9.93;5.33;;;29.40;44.50;;;;;;5026731;28;20434;-68
2023/07/08 10:02:05;;;;;;;9.67;4.60;;;29.50;44.30;;;;;;5032933;28;20522;-68
2023/07/08 10:04:33;;;;;;;6.20;4.40;;;29.60;44.40;;;;;;5025772;28;20502;-69
2023/07/08 10:07:01;;;;;;;8.97;4.40;;;29.70;43.70;;;;;;5047017;28;20473;-68
2023/07/08 10:09:28;;;;;;;7.90;3.60;;;29.70;43.00;;;;;;5016940;28;20474;-70
2023/07/08 10:12:01;;;;;;;8.60;4.97;;;29.70;42.30;;;;;;5011113;28;20829;-71
2023/07/08 10:14:33;;;;;;;9.27;4.00;;;29.80;41.60;;;;;;5021374;28;20425;-70
2023/07/08 10:17:00;;;;;;;7.67;3.80;;;29.80;41.10;;;;;;5015605;28;20436;-69
2023/07/08 10:19:27;;;;;;;9.83;4.50;;;29.90;42.30;;;;;;5012923;28;20537;-70
2023/07/08 10:22:15;;;;;;;7.27;4.47;;;30.00;42.60;;;;;;5013116;28;20493;-69
2023/07/08 10:25:03;;;;;;;10.73;3.87;;;30.10;42.60;;;;;;5030589;28;20925;-71
2023/07/08 10:27:37;;;;;;;7.43;3.70;;;30.20;42.60;;;;;;5032419;28;20434;-71
2023/07/08 10:30:17;;;;;;;7.20;4.90;;;30.30;42.70;;;;;;5031371;28;20532;-70
2023/07/08 10:32:56;;;;;;;7.73;4.67;;;30.50;43.50;;;;;;5031986;28;20422;-70
2023/07/08 10:35:28;;;;;;;8.93;5.07;;;30.60;43.50;;;;;;5036239;28;20414;-69
2023/07/08 10:38:14;;;;;;;6.60;3.47;;;30.70;43.10;;;;;;5035990;28;20458;-70
2023/07/08 10:40:49;;;;;;;5.90;3.87;;;30.90;41.10;;;;;;5032305;28;20431;-69
2023/07/08 10:43:32;;;;;;;6.23;3.60;;;30.90;40.20;;;;;;5034269;28;20851;-71
2023/07/08 10:46:15;;;;;;;5.73;3.50;;;31.00;38.30;;;;;;5015969;28;20491;-69
2023/07/08 10:49:06;;;;;;;7.20;3.80;;;31.00;39.10;;;;;;5032663;28;20458;-69
2023/07/08 10:51:41;;;;;;;8.57;4.27;;;31.10;38.80;;;;;;5036273;28;20488;-69
2023/07/08 10:54:28;;;;;;;6.03;3.40;;;31.30;39.50;;;;;;5026982;28;20435;-70
2023/07/08 10:57:02;;;;;;;7.33;4.90;;;31.50;39.00;;;;;;5018356;28;21011;-71
2023/07/08 10:59:45;;;;;;;8.97;3.53;;;31.60;38.30;;;;;;5016472;28;20825;-71
2023/07/08 11:02:32;;;;;;;5.77;3.77;;;31.80;37.60;;;;;;5015666;28;20967;-69
2023/07/08 11:05:10;;;;;;;7.33;3.50;;;32.00;37.80;;;;;;5031188;28;20435;-72
2023/07/08 11:07:43;;;;;;;8.50;4.13;;;32.10;37.50;;;;;;5035641;28;20426;-69
2023/07/08 11:10:17;;;;;;;6.33;3.50;;;32.40;37.80;;;;;;5035789;28;20466;-69
2023/07/08 11:12:48;;;;;;;6.53;3.50;;;32.50;36.10;;;;;;5035541;28;20469;-70
2023/07/08 11:15:25;;;;;;;5.13;3.10;;;32.70;33.70;;;;;;5017939;28;20446;-69
2023/07/08 11:17:59;;;;;;;4.60;2.87;;;32.80;34.00;;;;;;5017367;28;20437;-69
2023/07/08 11:20:33;;;;;;;6.77;3.87;;;32.80;33.80;;;;;;5035791;28;20460;-69
2023/07/08 11:23:05;;;;;;;6.00;3.47;;;32.90;32.50;;;;;;5035573;28;20433;-70
2023/07/08 11:25:34;;;;;;;5.13;3.10;;;33.00;33.20;;;;;;5016099;28;20954;-69
2023/07/08 11:28:06;;;;;;;7.30;3.60;;;33.10;31.80;;;;;;5019839;28;20478;-70
2023/07/08 11:30:39;;;;;;;7.40;3.50;;;33.10;32.50;;;;;;5017374;28;20902;-72
2023/07/08 11:33:12;;;;;;;7.90;3.73;;;33.20;31.80;;;;;;5015403;28;20489;-69
2023/07/08 11:35:42;;;;;;;5.77;3.03;;;33.20;31.80;;;;;;5020744;28;20488;-69
2023/07/08 11:38:15;;;;;;;7.13;3.50;;;33.30;30.90;;;;;;5019094;28;20950;-69
2023/07/08 11:40:56;;;;;;;7.43;2.67;;;33.30;31.20;;;;;;5016311;28;20519;-70
2023/07/08 11:43:28;;;;;;;4.13;2.60;;;33.30;31.10;;;;;;5015601;28;20836;-69
2023/07/08 11:45:57;;;;;;;5.47;3.17;;;33.20;29.20;;;;;;5014825;28;20446;-71
2023/07/08 11:48:28;;;;;;;5.80;2.67;;;33.10;28.80;;;;;;5020019;28;20473;-69
2023/07/08 11:50:56;;;;;;;5.17;2.63;;;33.10;29.60;;;;;;5021565;28;20547;-69
2023/07/08 11:53:47;;;;;;;4.90;3.07;;;33.00;29.20;;;;;;5014692;28;20439;-69
2023/07/08 11:56:24;;;;;;;4.93;2.57;;;32.90;29.80;;;;;;5026638;28;20426;-70
2023/07/08 11:59:07;;;;;;;7.33;3.00;;;32.90;31.10;;;;;;5016699;28;20913;-69
2023/07/08 12:01:40;;;;;;;5.07;3.40;;;32.90;31.10;;;;;;5021502;28;20455;-69
2023/07/08 12:04:53;;;;;;;5.37;2.60;;;32.90;30.90;;;;;;5034150;28;20466;-70
2023/07/08 12:07:30;;;;;;;6.43;2.73;;;32.90;30.10;;;;;;4953788;29;20434;-69
2023/07/08 12:10:00;;;;;;;5.67;2.80;;;32.80;30.20;;;;;;5011287;28;21079;-69
2023/07/08 12:12:33;;;;;;;7.53;3.23;;;32.70;30.90;;;;;;5030893;28;20509;-70
2023/07/08 12:15:11;;;;;;;10.10;2.73;;;32.70;30.30;;;;;;5031086;28;20454;-69
2023/07/08 12:17:39;;;;;;;8.57;3.20;;;32.60;30.60;;;;;;5014436;28;20477;-70
2023/07/08 12:20:14;;;;;;;5.87;3.53;;;32.50;31.10;;;;;;5014787;28;20513;-69
2023/07/08 12:22:41;;;;;;;6.30;3.33;;;32.60;31.50;;;;;;5030926;28;20907;-69
2023/07/08 12:25:13;;;;;;;5.77;2.63;;;32.50;31.20;;;;;;5015938;28;20506;-70
2023/07/08 12:27:41;;;;;;;4.80;3.33;;;32.50;31.80;;;;;;5021152;28;20432;-69
2023/07/08 12:30:11;;;;;;;6.23;3.53;;;32.50;31.10;;;;;;5014475;28;20610;-69
2023/07/08 12:32:38;;;;;;;9.43;3.40;;;32.50;31.50;;;;;;5014036;28;20474;-70
2023/07/08 12:35:05;;;;;;;4.30;3.00;;;32.50;31.60;;;;;;5031408;28;20443;-69
2023/07/08 12:37:32;;;;;;;8.20;2.53;;;32.60;32.10;;;;;;5018358;28;20482;-69
2023/07/08 12:40:04;;;;;;;6.50;3.40;;;32.60;32.00;;;;;;5015695;28;20439;-69
2023/07/08 12:42:32;;;;;;;5.73;2.80;;;32.70;31.30;;;;;;5033336;28;20423;-69
2023/07/08 12:45:00;;;;;;;6.10;3.00;;;32.80;31.10;;;;;;5034140;28;20430;-69
2023/07/08 12:47:27;;;;;;;4.77;3.00;;;32.70;30.70;;;;;;5034207;28;20533;-69
2023/07/08 12:49:54;;;;;;;4.93;3.37;;;32.60;30.50;;;;;;5028198;28;20517;-69
2023/07/08 12:52:23;;;;;;;6.40;3.50;;;32.70;31.20;;;;;;5014024;28;20471;-69
2023/07/08 12:54:50;;;;;;;5.53;3.30;;;32.60;31.10;;;;;;5013805;28;20914;-69